Time,TemperatureF,DewpointF,PressureIn,WindDirection,WindDirectionDegrees,WindSpeedMPH,WindSpeedGustMPH,Humidity,HourlyPrecipIn,Conditions,Clouds,dailyrainin,SoftwareType,DateUTC
2013-09-24 00:00:00,32.7,31.9,29.75,ESE,115,0.0,0.0,97,0.00,,,0.12,Wunderground v.1.15,2013-09-24 08:00:00,
2013-09-24 00:05:00,32.7,31.9,29.75,ESE,115,0.0,0.0,97,0.00,,,0.00,Wunderground v.1.15,2013-09-24 08:05:00,
2013-09-24 00:10:00,32.7,31.9,29.75,ESE,115,0.0,0.0,97,0.00,,,0.00,Wunderground v.1.15,2013-09-24 08:10:00,
2013-09-24 00:15:00,32.6,31.8,29.75,ESE,115,0.0,0.0,97,0.00,,,0.00,Wunderground v.1.15,2013-09-24 08:15:00,
2013-09-24 00:20:00,32.7,31.9,29.75,ESE,115,0.0,0.0,97,0.00,,,0.00,Wunderground v.1.15,2013-09-24 08:20:00,
2013-09-24 00:25:00,32.6,31.8,29.75,ESE,115,0.0,0.0,97,0.00,,,0.00,Wunderground v.1.15,2013-09-24 08:25:00,
2013-09-24 00:30:00,32.6,31.8,29.75,ESE,115,0.0,0.0,97,0.00,,,0.00,Wunderground v.1.15,2013-09-24 08:30:00,
2013-09-24 00:35:00,32.6,31.8,29.75,ESE,115,0.0,0.0,97,0.00,,,0.00,Wunderground v.1.15,2013-09-24 08:35:00,
2013-09-24 00:40:00,32.5,31.7,29.75,ESE,115,0.0,0.0,97,0.00,,,0.00,Wunderground v.1.15,2013-09-24 08:40:00,
2013-09-24 00:45:00,32.5,31.7,29.75,ESE,115,0.0,0.0,97,0.00,,,0.00,Wunderground v.1.15,2013-09-24 08:45:00,
2013-09-24 00:50:00,32.5,31.7,29.75,ESE,115,0.0,0.0,97,0.00,,,0.00,Wunderground v.1.15,2013-09-24 08:50:00,
2013-09-24 01:00:00,32.4,31.6,29.75,ESE,115,0.0,0.0,97,0.00,,,0.00,Wunderground v.1.15,2013-09-24 09:00:00,
2013-09-24 01:05:00,32.5,31.7,29.75,ESE,115,0.0,0.0,97,0.00,,,0.00,Wunderground v.1.15,2013-09-24 09:05:00,
2013-09-24 01:15:00,32.5,31.7,29.75,ESE,115,0.0,0.0,97,0.00,,,0.00,Wunderground v.1.15,2013-09-24 09:15:00,
2013-09-24 01:20:00,32.4,31.6,29.75,ESE,115,0.0,0.0,97,0.00,,,0.00,Wunderground v.1.15,2013-09-24 09:20:00,
2013-09-24 01:25:00,32.2,31.4,29.75,ESE,115,0.0,0.0,97,0.00,,,0.00,Wunderground v.1.15,2013-09-24 09:25:00,
2013-09-24 01:30:00,32.0,31.2,29.75,ESE,115,0.0,0.0,97,0.00,,,0.00,Wunderground v.1.15,2013-09-24 09:30:00,
2013-09-24 01:35:00,31.9,30.9,29.75,ESE,115,0.0,0.0,96,0.00,,,0.00,Wunderground v.1.15,2013-09-24 09:35:00,
2013-09-24 01:40:00,31.7,30.7,29.75,ESE,115,0.0,0.0,96,0.00,,,0.00,Wunderground v.1.15,2013-09-24 09:40:00,
2013-09-24 01:45:00,31.6,30.8,29.75,ESE,115,0.0,0.0,97,0.00,,,0.00,Wunderground v.1.15,2013-09-24 09:45:00,
2013-09-24 01:50:00,31.7,30.9,29.75,ESE,115,0.0,0.0,97,0.00,,,0.00,Wunderground v.1.15,2013-09-24 09:50:00,
2013-09-24 01:55:00,31.7,30.9,29.75,ESE,115,0.0,0.0,97,0.00,,,0.00,Wunderground v.1.15,2013-09-24 09:55:00,
2013-09-24 02:00:00,31.8,31.0,29.75,ESE,115,0.0,0.0,97,0.00,,,0.00,Wunderground v.1.15,2013-09-24 10:00:00,
2013-09-24 02:05:00,31.8,31.0,29.75,ESE,115,0.0,0.0,97,0.00,,,0.00,Wunderground v.1.15,2013-09-24 10:05:00,
2013-09-24 02:10:00,31.7,30.9,29.75,ESE,115,0.0,0.0,97,0.00,,,0.00,Wunderground v.1.15,2013-09-24 10:10:00,
2013-09-24 02:15:00,31.6,30.8,29.75,ESE,115,0.0,0.0,97,0.00,,,0.00,Wunderground v.1.15,2013-09-24 10:15:00,
2013-09-24 02:20:00,31.5,30.7,29.75,ESE,115,0.0,0.0,97,0.00,,,0.00,Wunderground v.1.15,2013-09-24 10:20:00,
2013-09-24 02:25:00,31.4,30.6,29.75,ESE,115,0.0,0.0,97,0.00,,,0.00,Wunderground v.1.15,2013-09-24 10:25:00,
2013-09-24 02:30:00,31.0,30.2,29.75,SE,136,0.0,1.0,97,0.00,,,0.00,Wunderground v.1.15,2013-09-24 10:30:00,
2013-09-24 02:35:00,31.0,30.2,29.76,South,171,1.0,2.0,97,0.00,,,0.00,Wunderground v.1.15,2013-09-24 10:35:00,
2013-09-24 02:40:00,31.2,30.4,29.76,South,173,1.0,1.0,97,0.00,,,0.00,Wunderground v.1.15,2013-09-24 10:40:00,
2013-09-24 02:45:00,31.4,30.6,29.76,South,173,1.0,1.0,97,0.00,,,0.00,Wunderground v.1.15,2013-09-24 10:45:00,
2013-09-24 02:50:00,31.4,30.6,29.77,South,173,1.0,1.0,97,0.00,,,0.00,Wunderground v.1.15,2013-09-24 10:50:00,
2013-09-24 02:55:00,31.6,30.8,29.76,SSE,161,1.0,1.0,97,0.00,,,0.00,Wunderground v.1.15,2013-09-24 10:55:00,
2013-09-24 03:00:00,31.7,30.9,29.77,SSE,161,1.0,1.0,97,0.00,,,0.00,Wunderground v.1.15,2013-09-24 11:00:00,
2013-09-24 03:05:00,32.1,31.6,29.77,ESE,115,0.0,1.0,98,0.00,,,0.00,Wunderground v.1.15,2013-09-24 11:05:00,
2013-09-24 03:10:00,32.2,31.4,29.77,ESE,115,0.0,0.0,97,0.00,,,0.00,Wunderground v.1.15,2013-09-24 11:10:00,
2013-09-24 03:15:00,32.4,31.9,29.77,ESE,115,0.0,0.0,98,0.00,,,0.00,Wunderground v.1.15,2013-09-24 11:15:00,
2013-09-24 03:20:00,32.6,32.1,29.76,ESE,115,0.0,0.0,98,0.00,,,0.00,Wunderground v.1.15,2013-09-24 11:20:00,
2013-09-24 03:25:00,32.7,32.2,29.76,ESE,115,0.0,0.0,98,0.00,,,0.00,Wunderground v.1.15,2013-09-24 11:25:00,
2013-09-24 03:30:00,32.8,32.3,29.76,ESE,115,0.0,0.0,98,0.00,,,0.00,Wunderground v.1.15,2013-09-24 11:30:00,
2013-09-24 03:35:00,32.8,32.3,29.77,ESE,115,0.0,0.0,98,0.00,,,0.00,Wunderground v.1.15,2013-09-24 11:35:00,
2013-09-24 03:45:00,32.6,31.8,29.77,ESE,115,0.0,0.0,97,0.00,,,0.00,Wunderground v.1.15,2013-09-24 11:45:00,
2013-09-24 03:50:00,32.6,31.8,29.77,ESE,115,0.0,0.0,97,0.00,,,0.00,Wunderground v.1.15,2013-09-24 11:50:00,
2013-09-24 03:55:00,32.5,31.7,29.77,ESE,115,0.0,0.0,97,0.00,,,0.00,Wunderground v.1.15,2013-09-24 11:55:00,
2013-09-24 04:00:00,32.5,31.7,29.76,ESE,115,0.0,0.0,97,0.00,,,0.00,Wunderground v.1.15,2013-09-24 12:00:00,
2013-09-24 04:05:00,32.4,31.6,29.76,ESE,115,0.0,0.0,97,0.00,,,0.00,Wunderground v.1.15,2013-09-24 12:05:00,
2013-09-24 04:10:00,32.3,31.5,29.76,ESE,115,0.0,0.0,97,0.00,,,0.00,Wunderground v.1.15,2013-09-24 12:10:00,
2013-09-24 04:15:00,32.2,31.4,29.76,ESE,115,0.0,0.0,97,0.00,,,0.00,Wunderground v.1.15,2013-09-24 12:15:00,
2013-09-24 04:20:00,32.1,31.3,29.76,ESE,115,0.0,0.0,97,0.00,,,0.00,Wunderground v.1.15,2013-09-24 12:20:00,
2013-09-24 04:25:00,32.1,31.3,29.76,ESE,115,0.0,0.0,97,0.00,,,0.00,Wunderground v.1.15,2013-09-24 12:25:00,
2013-09-24 04:30:00,32.0,31.2,29.76,ESE,115,0.0,2.0,97,0.00,,,0.00,Wunderground v.1.15,2013-09-24 12:30:00,
2013-09-24 04:35:00,31.9,31.1,29.76,ESE,115,1.0,2.0,97,0.00,,,0.00,Wunderground v.1.15,2013-09-24 12:35:00,
2013-09-24 04:40:00,31.6,30.8,29.76,ESE,115,0.0,1.0,97,0.00,,,0.00,Wunderground v.1.15,2013-09-24 12:40:00,
2013-09-24 04:45:00,31.4,30.6,29.76,ESE,115,0.0,1.0,97,0.00,,,0.00,Wunderground v.1.15,2013-09-24 12:45:00,
2013-09-24 04:50:00,31.2,30.4,29.76,ESE,115,0.0,0.0,97,0.00,,,0.00,Wunderground v.1.15,2013-09-24 12:50:00,
2013-09-24 04:55:00,31.0,30.2,29.76,ESE,115,0.0,0.0,97,0.00,,,0.00,Wunderground v.1.15,2013-09-24 12:55:00,
2013-09-24 05:00:00,30.9,30.1,29.76,ESE,115,0.0,0.0,97,0.00,,,0.00,Wunderground v.1.15,2013-09-24 13:00:00,
2013-09-24 05:05:00,30.8,30.0,29.76,ESE,115,0.0,0.0,97,0.00,,,0.00,Wunderground v.1.15,2013-09-24 13:05:00,
2013-09-24 05:10:00,30.9,30.1,29.76,ESE,115,0.0,0.0,97,0.00,,,0.00,Wunderground v.1.15,2013-09-24 13:10:00,
2013-09-24 05:15:00,31.0,30.2,29.76,ESE,115,1.0,1.0,97,0.00,,,0.00,Wunderground v.1.15,2013-09-24 13:15:00,
2013-09-24 05:20:00,31.1,30.6,29.76,ESE,115,1.0,5.0,98,0.00,,,0.00,Wunderground v.1.15,2013-09-24 13:20:00,
2013-09-24 05:25:00,31.2,30.7,29.76,ESE,115,2.0,5.0,98,0.00,,,0.00,Wunderground v.1.15,2013-09-24 13:25:00,
2013-09-24 05:30:00,31.4,30.9,29.76,ESE,115,1.0,1.0,98,0.00,,,0.00,Wunderground v.1.15,2013-09-24 13:30:00,
2013-09-24 05:35:00,31.4,30.9,29.76,ESE,115,0.0,1.0,98,0.00,,,0.00,Wunderground v.1.15,2013-09-24 13:35:00,
2013-09-24 05:40:00,31.4,30.9,29.76,ESE,115,0.0,0.0,98,0.00,,,0.00,Wunderground v.1.15,2013-09-24 13:40:00,
2013-09-24 05:45:00,31.4,30.9,29.76,ESE,115,0.0,0.0,98,0.00,,,0.00,Wunderground v.1.15,2013-09-24 13:45:00,
2013-09-24 05:50:00,31.2,30.4,29.76,ESE,115,0.0,0.0,97,0.00,,,0.00,Wunderground v.1.15,2013-09-24 13:50:00,
2013-09-24 05:55:00,31.1,30.3,29.76,ESE,115,0.0,0.0,97,0.00,,,0.00,Wunderground v.1.15,2013-09-24 13:55:00,
2013-09-24 06:00:00,30.8,30.0,29.76,ESE,115,0.0,0.0,97,0.00,,,0.00,Wunderground v.1.15,2013-09-24 14:00:00,
2013-09-24 06:05:00,30.6,29.9,29.76,ESE,115,0.0,0.0,97,0.00,,,0.00,Wunderground v.1.15,2013-09-24 14:05:00,
2013-09-24 06:10:00,30.5,29.8,29.76,ESE,115,0.0,0.0,97,0.00,,,0.00,Wunderground v.1.15,2013-09-24 14:10:00,
2013-09-24 06:15:00,30.3,29.6,29.77,ESE,115,0.0,0.0,97,0.00,,,0.00,Wunderground v.1.15,2013-09-24 14:15:00,
2013-09-24 06:20:00,30.2,29.5,29.76,ESE,115,0.0,0.0,97,0.00,,,0.00,Wunderground v.1.15,2013-09-24 14:20:00,
2013-09-24 06:25:00,30.2,29.5,29.76,ESE,115,0.0,0.0,97,0.00,,,0.00,Wunderground v.1.15,2013-09-24 14:25:00,
2013-09-24 06:30:00,30.4,29.9,29.76,ESE,115,1.0,1.0,98,0.00,,,0.00,Wunderground v.1.15,2013-09-24 14:30:00,
2013-09-24 06:35:00,30.5,30.0,29.76,ESE,115,0.0,1.0,98,0.00,,,0.00,Wunderground v.1.15,2013-09-24 14:35:00,
2013-09-24 06:40:00,30.5,30.0,29.76,ESE,115,0.0,0.0,98,0.00,,,0.00,Wunderground v.1.15,2013-09-24 14:40:00,
2013-09-24 06:45:00,30.4,29.9,29.76,ESE,115,0.0,0.0,98,0.00,,,0.00,Wunderground v.1.15,2013-09-24 14:45:00,
2013-09-24 06:50:00,30.3,29.6,29.76,ESE,115,0.0,0.0,97,0.00,,,0.00,Wunderground v.1.15,2013-09-24 14:50:00,
2013-09-24 06:55:00,30.1,29.4,29.75,ESE,115,0.0,0.0,97,0.00,,,0.00,Wunderground v.1.15,2013-09-24 14:55:00,
2013-09-24 07:00:00,30.1,29.4,29.76,ESE,115,0.0,2.0,97,0.00,,,0.00,Wunderground v.1.15,2013-09-24 15:00:00,
2013-09-24 07:05:00,30.2,29.7,29.76,ESE,115,1.0,4.0,98,0.00,,,0.00,Wunderground v.1.15,2013-09-24 15:05:00,
2013-09-24 07:10:00,30.5,30.0,29.75,ESE,115,1.0,1.0,98,0.00,,,0.00,Wunderground v.1.15,2013-09-24 15:10:00,
2013-09-24 07:15:00,30.7,30.2,29.76,ESE,115,0.0,1.0,98,0.00,,,0.00,Wunderground v.1.15,2013-09-24 15:15:00,
2013-09-24 07:20:00,30.8,30.3,29.76,ESE,115,0.0,0.0,98,0.00,,,0.00,Wunderground v.1.15,2013-09-24 15:20:00,
2013-09-24 07:25:00,30.8,30.3,29.75,ESE,115,0.0,0.0,98,0.00,,,0.00,Wunderground v.1.15,2013-09-24 15:25:00,
2013-09-24 07:30:00,30.9,30.4,29.75,ESE,115,0.0,1.0,98,0.00,,,0.00,Wunderground v.1.15,2013-09-24 15:30:00,
2013-09-24 07:35:00,30.9,30.4,29.75,ESE,115,0.0,1.0,98,0.00,,,0.00,Wunderground v.1.15,2013-09-24 15:35:00,
2013-09-24 07:40:00,30.9,30.4,29.75,ESE,115,0.0,0.0,98,0.00,,,0.00,Wunderground v.1.15,2013-09-24 15:40:00,
2013-09-24 07:45:00,30.9,30.4,29.75,ESE,115,0.0,0.0,98,0.00,,,0.00,Wunderground v.1.15,2013-09-24 15:45:00,
2013-09-24 07:50:00,30.8,30.3,29.76,ESE,115,0.0,0.0,98,0.00,,,0.00,Wunderground v.1.15,2013-09-24 15:50:00,
2013-09-24 07:55:00,30.8,30.3,29.76,ESE,115,0.0,0.0,98,0.00,,,0.00,Wunderground v.1.15,2013-09-24 15:55:00,
2013-09-24 08:00:00,30.9,30.4,29.76,ESE,115,0.0,0.0,98,0.00,,,0.00,Wunderground v.1.15,2013-09-24 16:00:00,
2013-09-24 08:05:00,31.0,30.5,29.76,ESE,115,0.0,0.0,98,0.00,,,0.00,Wunderground v.1.15,2013-09-24 16:05:00,
2013-09-24 08:10:00,31.2,30.7,29.76,ESE,115,0.0,0.0,98,0.00,,,0.00,Wunderground v.1.15,2013-09-24 16:10:00,
2013-09-24 08:15:00,31.4,30.9,29.76,ESE,115,0.0,0.0,98,0.00,,,0.00,Wunderground v.1.15,2013-09-24 16:15:00,
2013-09-24 08:20:00,31.5,31.0,29.76,ESE,115,0.0,0.0,98,0.00,,,0.00,Wunderground v.1.15,2013-09-24 16:20:00,
2013-09-24 08:25:00,31.5,31.0,29.76,ESE,115,0.0,0.0,98,0.00,,,0.00,Wunderground v.1.15,2013-09-24 16:25:00,
2013-09-24 08:30:00,31.6,31.1,29.76,ESE,115,0.0,0.0,98,0.00,,,0.00,Wunderground v.1.15,2013-09-24 16:30:00,
2013-09-24 08:35:00,31.5,31.0,29.76,ESE,115,0.0,0.0,98,0.00,,,0.00,Wunderground v.1.15,2013-09-24 16:35:00,
2013-09-24 08:40:00,31.4,30.9,29.76,ESE,115,0.0,0.0,98,0.00,,,0.00,Wunderground v.1.15,2013-09-24 16:40:00,
2013-09-24 08:45:00,31.4,30.9,29.76,ESE,115,0.0,0.0,98,0.00,,,0.00,Wunderground v.1.15,2013-09-24 16:45:00,
2013-09-24 08:50:00,31.3,30.8,29.76,ESE,115,0.0,0.0,98,0.00,,,0.00,Wunderground v.1.15,2013-09-24 16:50:00,
2013-09-24 08:55:00,31.2,30.7,29.76,ESE,115,0.0,0.0,98,0.00,,,0.00,Wunderground v.1.15,2013-09-24 16:55:00,
2013-09-24 09:00:00,31.3,30.8,29.76,ESE,115,0.0,0.0,98,0.00,,,0.00,Wunderground v.1.15,2013-09-24 17:00:00,
2013-09-24 09:05:00,31.2,30.7,29.76,ESE,115,0.0,0.0,98,0.00,,,0.00,Wunderground v.1.15,2013-09-24 17:05:00,
2013-09-24 09:10:00,31.3,30.8,29.76,ESE,115,0.0,0.0,98,0.00,,,0.00,Wunderground v.1.15,2013-09-24 17:10:00,
2013-09-24 09:15:00,31.4,30.9,29.75,ESE,115,0.0,0.0,98,0.00,,,0.00,Wunderground v.1.15,2013-09-24 17:15:00,
2013-09-24 09:20:00,31.4,30.9,29.76,ESE,115,0.0,0.0,98,0.00,,,0.00,Wunderground v.1.15,2013-09-24 17:20:00,
2013-09-24 09:25:00,31.4,30.9,29.76,ESE,115,0.0,0.0,98,0.00,,,0.00,Wunderground v.1.15,2013-09-24 17:25:00,
2013-09-24 09:30:00,31.5,31.0,29.76,ESE,115,0.0,0.0,98,0.00,,,0.00,Wunderground v.1.15,2013-09-24 17:30:00,
2013-09-24 09:35:00,31.4,30.9,29.75,ESE,115,0.0,0.0,98,0.00,,,0.00,Wunderground v.1.15,2013-09-24 17:35:00,
2013-09-24 09:40:00,31.3,30.8,29.75,ESE,115,0.0,0.0,98,0.00,,,0.00,Wunderground v.1.15,2013-09-24 17:40:00,
2013-09-24 09:45:00,31.2,30.7,29.75,ESE,115,0.0,0.0,98,0.00,,,0.00,Wunderground v.1.15,2013-09-24 17:45:00,
2013-09-24 09:50:00,31.2,30.7,29.75,ESE,115,0.0,0.0,98,0.00,,,0.00,Wunderground v.1.15,2013-09-24 17:50:00,
2013-09-24 09:55:00,31.2,30.7,29.75,ESE,115,0.0,0.0,98,0.00,,,0.00,Wunderground v.1.15,2013-09-24 17:55:00,
2013-09-24 10:00:00,31.2,30.7,29.75,ESE,115,0.0,0.0,98,0.00,,,0.00,Wunderground v.1.15,2013-09-24 18:00:00,
2013-09-24 10:10:00,31.5,31.0,29.75,ESE,115,0.0,0.0,98,0.00,,,0.00,Wunderground v.1.15,2013-09-24 18:10:00,
2013-09-24 10:15:00,31.6,31.1,29.75,ESE,115,0.0,0.0,98,0.00,,,0.00,Wunderground v.1.15,2013-09-24 18:15:00,
2013-09-24 10:20:00,31.8,31.3,29.75,ESE,115,0.0,0.0,98,0.00,,,0.00,Wunderground v.1.15,2013-09-24 18:20:00,
2013-09-24 10:25:00,32.0,31.5,29.75,ESE,115,0.0,0.0,98,0.00,,,0.00,Wunderground v.1.15,2013-09-24 18:25:00,
2013-09-24 10:30:00,32.2,31.7,29.75,ESE,115,0.0,0.0,98,0.00,,,0.00,Wunderground v.1.15,2013-09-24 18:30:00,
2013-09-24 10:35:00,32.3,31.8,29.75,ESE,115,0.0,0.0,98,0.00,,,0.00,Wunderground v.1.15,2013-09-24 18:35:00,
2013-09-24 10:40:00,32.5,32.0,29.75,ESE,115,0.0,0.0,98,0.00,,,0.00,Wunderground v.1.15,2013-09-24 18:40:00,
2013-09-24 10:45:00,32.5,32.0,29.75,ESE,115,0.0,0.0,98,0.00,,,0.00,Wunderground v.1.15,2013-09-24 18:45:00,
2013-09-24 10:50:00,32.6,32.1,29.75,ESE,115,0.0,0.0,98,0.00,,,0.00,Wunderground v.1.15,2013-09-24 18:50:00,
2013-09-24 10:55:00,32.6,32.1,29.75,ESE,115,0.0,0.0,98,0.00,,,0.00,Wunderground v.1.15,2013-09-24 18:55:00,
2013-09-24 11:00:00,32.7,32.2,29.75,ESE,115,0.0,0.0,98,0.00,,,0.00,Wunderground v.1.15,2013-09-24 19:00:00,
2013-09-24 11:05:00,32.7,32.2,29.75,ESE,115,0.0,0.0,98,0.00,,,0.00,Wunderground v.1.15,2013-09-24 19:05:00,
2013-09-24 11:10:00,32.8,32.3,29.74,ESE,115,0.0,0.0,98,0.00,,,0.00,Wunderground v.1.15,2013-09-24 19:10:00,
2013-09-24 11:15:00,32.9,32.4,29.74,ESE,115,0.0,0.0,98,0.00,,,0.00,Wunderground v.1.15,2013-09-24 19:15:00,
2013-09-24 11:20:00,32.9,32.4,29.74,ESE,115,0.0,0.0,98,0.00,,,0.00,Wunderground v.1.15,2013-09-24 19:20:00,
2013-09-24 11:25:00,33.0,32.5,29.74,ESE,115,0.0,2.0,98,0.00,,,0.00,Wunderground v.1.15,2013-09-24 19:25:00,
2013-09-24 11:30:00,33.0,32.5,29.74,ESE,115,1.0,1.0,98,0.00,,,0.00,Wunderground v.1.15,2013-09-24 19:30:00,
2013-09-24 11:35:00,33.1,32.6,29.74,ESE,115,1.0,1.0,98,0.00,,,0.00,Wunderground v.1.15,2013-09-24 19:35:00,
2013-09-24 11:40:00,33.2,32.7,29.73,NE,44,1.0,1.0,98,0.00,,,0.00,Wunderground v.1.15,2013-09-24 19:40:00,
2013-09-24 11:45:00,33.3,32.8,29.73,NE,44,1.0,1.0,98,0.00,,,0.00,Wunderground v.1.15,2013-09-24 19:45:00,
2013-09-24 11:50:00,33.3,32.8,29.73,NE,44,1.0,1.0,98,0.00,,,0.00,Wunderground v.1.15,2013-09-24 19:50:00,
2013-09-24 11:55:00,33.4,32.6,29.73,NE,44,0.0,1.0,97,0.00,,,0.00,Wunderground v.1.15,2013-09-24 19:55:00,
2013-09-24 12:00:00,33.5,32.7,29.73,NE,44,0.0,0.0,97,0.00,,,0.00,Wunderground v.1.15,2013-09-24 20:00:00,
2013-09-24 12:05:00,33.6,32.8,29.73,NE,44,0.0,0.0,97,0.00,,,0.00,Wunderground v.1.15,2013-09-24 20:05:00,
2013-09-24 12:10:00,33.6,32.8,29.73,NE,44,0.0,0.0,97,0.00,,,0.00,Wunderground v.1.15,2013-09-24 20:10:00,
2013-09-24 12:15:00,33.8,33.0,29.72,NE,44,1.0,3.0,97,0.00,,,0.00,Wunderground v.1.15,2013-09-24 20:15:00,
2013-09-24 12:20:00,33.9,33.1,29.72,NE,44,2.0,2.0,97,0.00,,,0.00,Wunderground v.1.15,2013-09-24 20:20:00,
2013-09-24 12:25:00,34.1,33.3,29.72,NE,44,2.0,4.0,97,0.00,,,0.00,Wunderground v.1.15,2013-09-24 20:25:00,
2013-09-24 12:30:00,34.3,33.5,29.72,NE,44,1.0,1.0,97,0.00,,,0.01,Wunderground v.1.15,2013-09-24 20:30:00,
2013-09-24 12:45:00,35.2,34.4,29.72,NE,44,0.0,0.0,97,0.04,,,0.02,Wunderground v.1.15,2013-09-24 20:45:00,
2013-09-24 12:50:00,35.4,34.6,29.72,NE,44,0.0,0.0,97,0.04,,,0.02,Wunderground v.1.15,2013-09-24 20:50:00,
2013-09-24 12:55:00,35.7,34.9,29.72,NE,44,0.0,0.0,97,0.04,,,0.02,Wunderground v.1.15,2013-09-24 20:55:00,
2013-09-24 13:00:00,35.8,34.8,29.71,NE,44,0.0,0.0,96,0.04,,,0.02,Wunderground v.1.15,2013-09-24 21:00:00,
2013-09-24 13:05:00,35.9,34.9,29.71,NE,44,0.0,0.0,96,0.00,,,0.03,Wunderground v.1.15,2013-09-24 21:05:00,
2013-09-24 13:10:00,35.8,34.8,29.71,NE,44,0.0,0.0,96,0.00,,,0.03,Wunderground v.1.15,2013-09-24 21:10:00,
2013-09-24 13:15:00,35.7,34.4,29.70,NE,44,0.0,0.0,95,0.00,,,0.03,Wunderground v.1.15,2013-09-24 21:15:00,
2013-09-24 13:20:00,35.7,34.7,29.70,NE,44,0.0,0.0,96,0.00,,,0.04,Wunderground v.1.15,2013-09-24 21:20:00,
2013-09-24 13:30:00,35.8,34.8,29.69,NE,44,0.0,0.0,96,0.00,,,0.04,Wunderground v.1.15,2013-09-24 21:30:00,
2013-09-24 13:35:00,35.9,34.9,29.69,NE,44,0.0,0.0,96,0.00,,,0.04,Wunderground v.1.15,2013-09-24 21:35:00,
2013-09-24 13:45:00,36.0,35.0,29.69,NE,44,0.0,0.0,96,0.00,,,0.04,Wunderground v.1.15,2013-09-24 21:45:00,
2013-09-24 13:50:00,36.1,35.1,29.69,NE,44,0.0,0.0,96,0.00,,,0.05,Wunderground v.1.15,2013-09-24 21:50:00,
2013-09-24 13:55:00,36.2,35.2,29.69,NE,44,0.0,0.0,96,0.00,,,0.05,Wunderground v.1.15,2013-09-24 21:55:00,
2013-09-24 14:00:00,36.4,35.6,29.68,NE,44,0.0,0.0,97,0.00,,,0.05,Wunderground v.1.15,2013-09-24 22:00:00,
2013-09-24 14:05:00,36.4,35.4,29.69,NE,44,0.0,0.0,96,0.00,,,0.05,Wunderground v.1.15,2013-09-24 22:05:00,
2013-09-24 14:10:00,36.4,35.4,29.68,NE,44,0.0,0.0,96,0.00,,,0.05,Wunderground v.1.15,2013-09-24 22:10:00,
2013-09-24 14:15:00,36.4,35.4,29.68,NE,44,0.0,0.0,96,0.00,,,0.05,Wunderground v.1.15,2013-09-24 22:15:00,
2013-09-24 14:20:00,36.3,35.0,29.68,NE,44,0.0,0.0,95,0.00,,,0.06,Wunderground v.1.15,2013-09-24 22:20:00,
2013-09-24 14:25:00,36.5,35.5,29.68,NE,44,0.0,0.0,96,0.00,,,0.06,Wunderground v.1.15,2013-09-24 22:25:00,
2013-09-24 14:30:00,36.7,35.7,29.68,NE,44,0.0,0.0,96,0.00,,,0.06,Wunderground v.1.15,2013-09-24 22:30:00,
2013-09-24 14:35:00,37.1,36.1,29.67,NE,44,0.0,0.0,96,0.00,,,0.06,Wunderground v.1.15,2013-09-24 22:35:00,
2013-09-24 14:40:00,37.4,36.4,29.67,NE,44,0.0,1.0,96,0.00,,,0.06,Wunderground v.1.15,2013-09-24 22:40:00,
2013-09-24 14:45:00,37.6,36.3,29.67,NE,44,0.0,2.0,95,0.00,,,0.06,Wunderground v.1.15,2013-09-24 22:45:00,
2013-09-24 14:50:00,38.0,37.0,29.67,NE,44,0.0,0.0,96,0.00,,,0.07,Wunderground v.1.15,2013-09-24 22:50:00,
2013-09-24 14:55:00,38.3,37.0,29.67,NE,44,0.0,0.0,95,0.00,,,0.07,Wunderground v.1.15,2013-09-24 22:55:00,
2013-09-24 15:00:00,38.6,37.3,29.67,NE,44,0.0,0.0,95,0.00,,,0.07,Wunderground v.1.15,2013-09-24 23:00:00,
2013-09-24 15:05:00,38.8,37.2,29.67,NE,44,1.0,1.0,94,0.00,,,0.07,Wunderground v.1.15,2013-09-24 23:05:00,
2013-09-24 15:10:00,39.1,37.5,29.66,NE,44,1.0,1.0,94,0.00,,,0.07,Wunderground v.1.15,2013-09-24 23:10:00,
2013-09-24 15:15:00,39.4,37.8,29.66,NE,44,0.0,1.0,94,0.00,,,0.08,Wunderground v.1.15,2013-09-24 23:15:00,
2013-09-24 15:20:00,39.8,38.2,29.66,NE,44,1.0,1.0,94,0.00,,,0.08,Wunderground v.1.15,2013-09-24 23:20:00,
2013-09-24 15:25:00,40.1,38.5,29.66,NE,44,0.0,1.0,94,0.00,,,0.08,Wunderground v.1.15,2013-09-24 23:25:00,
2013-09-24 15:30:00,40.4,38.5,29.66,NNE,24,0.0,0.0,93,0.00,,,0.08,Wunderground v.1.15,2013-09-24 23:30:00,
2013-09-24 15:35:00,40.4,38.0,29.66,North,11,0.0,0.0,91,0.00,,,0.08,Wunderground v.1.15,2013-09-24 23:35:00,
2013-09-24 15:40:00,40.5,37.8,29.66,North,11,0.0,0.0,90,0.00,,,0.08,Wunderground v.1.15,2013-09-24 23:40:00,
2013-09-24 15:45:00,40.3,37.0,29.66,North,11,0.0,0.0,88,0.00,,,0.08,Wunderground v.1.15,2013-09-24 23:45:00,
2013-09-24 15:50:00,40.0,36.7,29.66,North,355,2.0,2.0,88,0.00,,,0.09,Wunderground v.1.15,2013-09-24 23:50:00,
2013-09-24 15:55:00,39.6,36.0,29.66,North,355,4.0,4.0,87,0.00,,,0.09,Wunderground v.1.15,2013-09-24 23:55:00,
2013-09-24 16:00:00,39.3,36.0,29.66,North,5,4.0,4.0,88,0.00,,,0.09,Wunderground v.1.15,2013-09-25 00:00:00,
2013-09-24 16:05:00,38.7,35.7,29.66,North,9,5.0,5.0,89,0.00,,,0.09,Wunderground v.1.15,2013-09-25 00:05:00,
2013-09-24 16:10:00,38.2,35.5,29.65,North,351,3.0,4.0,90,0.00,,,0.09,Wunderground v.1.15,2013-09-25 00:10:00,
2013-09-24 16:15:00,38.0,35.9,29.65,North,350,1.0,4.0,92,0.00,,,0.09,Wunderground v.1.15,2013-09-25 00:15:00,
2013-09-24 16:20:00,38.2,36.4,29.64,NNW,335,2.0,3.0,93,0.00,,,0.09,Wunderground v.1.15,2013-09-25 00:20:00,
2013-09-24 16:25:00,38.4,36.3,29.64,NNW,335,3.0,3.0,92,0.00,,,0.10,Wunderground v.1.15,2013-09-25 00:25:00,
2013-09-24 16:30:00,38.8,36.7,29.64,NNW,345,2.0,4.0,92,0.00,,,0.10,Wunderground v.1.15,2013-09-25 00:30:00,
2013-09-24 16:35:00,39.2,36.5,29.64,North,355,2.0,5.0,90,0.00,,,0.10,Wunderground v.1.15,2013-09-25 00:35:00,
2013-09-24 16:40:00,39.6,36.9,29.63,North,5,3.0,4.0,90,0.00,,,0.10,Wunderground v.1.15,2013-09-25 00:40:00,
2013-09-24 16:45:00,39.7,36.4,29.63,NNW,342,4.0,8.0,88,0.00,,,0.10,Wunderground v.1.15,2013-09-25 00:45:00,
2013-09-24 16:50:00,39.8,36.8,29.63,NNW,337,5.0,8.0,89,0.00,,,0.10,Wunderground v.1.15,2013-09-25 00:50:00,
2013-09-24 16:55:00,39.6,36.3,29.63,NNW,340,5.0,8.0,88,0.00,,,0.10,Wunderground v.1.15,2013-09-25 00:55:00,
2013-09-24 17:00:00,39.5,36.2,29.62,NNE,18,5.0,5.0,88,0.00,,,0.10,Wunderground v.1.15,2013-09-25 01:00:00,
2013-09-24 17:05:00,39.5,36.2,29.62,NNW,344,4.0,5.0,88,0.00,,,0.10,Wunderground v.1.15,2013-09-25 01:05:00,
2013-09-24 17:10:00,39.4,36.1,29.61,NNE,15,4.0,4.0,88,0.00,,,0.10,Wunderground v.1.15,2013-09-25 01:10:00,
2013-09-24 17:20:00,39.5,36.2,29.61,North,9,4.0,4.0,88,0.00,,,0.10,Wunderground v.1.15,2013-09-25 01:20:00,
2013-09-24 17:30:00,39.4,35.9,29.60,NNE,26,2.0,3.0,87,0.00,,,0.10,Wunderground v.1.15,2013-09-25 01:30:00,
2013-09-24 17:35:00,39.4,35.9,29.60,NNE,29,2.0,3.0,87,0.00,,,0.10,Wunderground v.1.15,2013-09-25 01:35:00,
2013-09-24 17:40:00,39.3,35.8,29.59,NNE,28,2.0,3.0,87,0.00,,,0.11,Wunderground v.1.15,2013-09-25 01:40:00,
2013-09-24 17:45:00,39.4,36.1,29.59,NE,41,2.0,3.0,88,0.00,,,0.11,Wunderground v.1.15,2013-09-25 01:45:00,
2013-09-24 17:50:00,39.3,35.5,29.59,North,9,3.0,4.0,86,0.00,,,0.11,Wunderground v.1.15,2013-09-25 01:50:00,
2013-09-24 18:00:00,38.5,35.0,29.58,NNE,22,5.0,5.0,87,0.00,,,0.11,Wunderground v.1.15,2013-09-25 02:00:00,
2013-09-24 18:05:00,38.3,34.5,29.58,NNW,342,4.0,5.0,86,0.00,,,0.11,Wunderground v.1.15,2013-09-25 02:05:00,
2013-09-24 18:10:00,38.3,34.5,29.58,NNE,16,4.0,4.0,86,0.00,,,0.11,Wunderground v.1.15,2013-09-25 02:10:00,
2013-09-24 18:20:00,38.4,34.0,29.57,NW,315,5.0,5.0,84,0.00,,,0.11,Wunderground v.1.15,2013-09-25 02:20:00,
2013-09-24 18:25:00,38.4,33.7,29.57,North,360,5.0,5.0,83,0.00,,,0.11,Wunderground v.1.15,2013-09-25 02:25:00,
2013-09-24 18:30:00,38.3,33.3,29.56,NNE,12,3.0,5.0,82,0.00,,,0.11,Wunderground v.1.15,2013-09-25 02:30:00,
2013-09-24 18:35:00,38.2,33.5,29.56,NNE,26,2.0,5.0,83,0.00,,,0.11,Wunderground v.1.15,2013-09-25 02:35:00,
2013-09-24 18:40:00,38.0,33.3,29.56,NNW,345,2.0,2.0,83,0.00,,,0.11,Wunderground v.1.15,2013-09-25 02:40:00,
2013-09-24 18:45:00,38.0,33.0,29.56,NNE,26,2.0,2.0,82,0.00,,,0.11,Wunderground v.1.15,2013-09-25 02:45:00,
2013-09-24 18:50:00,37.9,32.6,29.55,NNW,344,2.0,2.0,81,0.00,,,0.11,Wunderground v.1.15,2013-09-25 02:50:00,
2013-09-24 18:55:00,37.8,32.5,29.54,North,350,2.0,2.0,81,0.00,,,0.11,Wunderground v.1.15,2013-09-25 02:55:00,
2013-09-24 19:00:00,37.8,32.5,29.54,NW,309,3.0,5.0,81,0.00,,,0.11,Wunderground v.1.15,2013-09-25 03:00:00,
2013-09-24 19:05:00,37.8,32.5,29.54,NNW,336,3.0,5.0,81,0.00,,,0.11,Wunderground v.1.15,2013-09-25 03:05:00,
2013-09-24 19:10:00,37.8,32.8,29.53,NNW,344,0.0,0.0,82,0.00,,,0.11,Wunderground v.1.15,2013-09-25 03:10:00,
2013-09-24 19:15:00,37.7,32.4,29.53,WNW,291,2.0,2.0,81,0.00,,,0.11,Wunderground v.1.15,2013-09-25 03:15:00,
2013-09-24 19:25:00,37.8,32.5,29.52,NNW,345,2.0,3.0,81,0.00,,,0.11,Wunderground v.1.15,2013-09-25 03:25:00,
2013-09-24 19:30:00,37.7,31.8,29.52,NNW,343,2.0,2.0,79,0.00,,,0.11,Wunderground v.1.15,2013-09-25 03:30:00,
2013-09-24 19:35:00,37.7,32.4,29.52,NW,321,2.0,2.0,81,0.00,,,0.11,Wunderground v.1.15,2013-09-25 03:35:00,
2013-09-24 19:40:00,37.7,32.1,29.52,NW,315,3.0,5.0,80,0.00,,,0.11,Wunderground v.1.15,2013-09-25 03:40:00,
2013-09-24 19:45:00,37.7,32.4,29.52,NW,315,3.0,5.0,81,0.00,,,0.11,Wunderground v.1.15,2013-09-25 03:45:00,
2013-09-24 19:50:00,37.7,32.4,29.52,NW,317,2.0,2.0,81,0.00,,,0.11,Wunderground v.1.15,2013-09-25 03:50:00,
2013-09-24 19:55:00,37.6,32.3,29.52,North,5,1.0,2.0,81,0.00,,,0.11,Wunderground v.1.15,2013-09-25 03:55:00,
2013-09-24 20:00:00,37.6,32.6,29.52,North,5,1.0,1.0,82,0.00,,,0.11,Wunderground v.1.15,2013-09-25 04:00:00,
2013-09-24 20:05:00,37.5,32.5,29.52,NW,315,1.0,1.0,82,0.00,,,0.11,Wunderground v.1.15,2013-09-25 04:05:00,
2013-09-24 20:10:00,37.5,32.8,29.52,NNW,336,3.0,3.0,83,0.00,,,0.11,Wunderground v.1.15,2013-09-25 04:10:00,
2013-09-24 20:15:00,37.4,33.0,29.52,NNW,333,3.0,4.0,84,0.00,,,0.11,Wunderground v.1.15,2013-09-25 04:15:00,
2013-09-24 20:25:00,37.3,33.2,29.52,NW,325,2.0,2.0,85,0.00,,,0.11,Wunderground v.1.15,2013-09-25 04:25:00,
2013-09-24 20:30:00,37.3,33.2,29.52,NW,326,1.0,3.0,85,0.00,,,0.11,Wunderground v.1.15,2013-09-25 04:30:00,
2013-09-24 20:35:00,37.3,33.2,29.52,NNW,342,1.0,3.0,85,0.00,,,0.11,Wunderground v.1.15,2013-09-25 04:35:00,
2013-09-24 20:45:00,37.4,33.0,29.52,NW,312,2.0,6.0,84,0.00,,,0.11,Wunderground v.1.15,2013-09-25 04:45:00,
2013-09-24 20:50:00,37.4,32.7,29.52,NW,320,2.0,7.0,83,0.00,,,0.11,Wunderground v.1.15,2013-09-25 04:50:00,
2013-09-24 20:55:00,37.5,32.5,29.52,North,350,2.0,7.0,82,0.00,,,0.11,Wunderground v.1.15,2013-09-25 04:55:00,
2013-09-24 21:00:00,37.5,32.2,29.52,North,355,3.0,3.0,81,0.00,,,0.11,Wunderground v.1.15,2013-09-25 05:00:00,
2013-09-24 21:05:00,37.4,32.4,29.53,NNW,344,4.0,5.0,82,0.00,,,0.11,Wunderground v.1.15,2013-09-25 05:05:00,
2013-09-24 21:10:00,37.1,32.4,29.52,NNE,13,6.0,10.0,83,0.00,,,0.11,Wunderground v.1.15,2013-09-25 05:10:00,
2013-09-24 21:15:00,36.7,32.6,29.52,NNE,25,5.0,10.0,85,0.00,,,0.11,Wunderground v.1.15,2013-09-25 05:15:00,
2013-09-24 21:20:00,36.2,32.7,29.52,NE,49,4.0,4.0,87,0.00,,,0.11,Wunderground v.1.15,2013-09-25 05:20:00,
2013-09-24 21:25:00,36.0,32.8,29.52,ENE,67,3.0,4.0,88,0.00,,,0.11,Wunderground v.1.15,2013-09-25 05:25:00,
2013-09-24 21:30:00,35.8,32.9,29.52,ENE,73,1.0,1.0,89,0.00,,,0.11,Wunderground v.1.15,2013-09-25 05:30:00,
2013-09-24 21:35:00,35.6,32.7,29.52,ENE,73,0.0,1.0,89,0.00,,,0.11,Wunderground v.1.15,2013-09-25 05:35:00,
2013-09-24 21:40:00,35.4,32.8,29.52,NW,317,0.0,0.0,90,0.00,,,0.11,Wunderground v.1.15,2013-09-25 05:40:00,
2013-09-24 21:45:00,35.2,32.8,29.52,NW,326,0.0,1.0,91,0.00,,,0.11,Wunderground v.1.15,2013-09-25 05:45:00,
2013-09-24 21:50:00,35.1,32.7,29.52,North,355,1.0,8.0,91,0.00,,,0.11,Wunderground v.1.15,2013-09-25 05:50:00,
2013-09-24 21:55:00,35.1,32.7,29.51,West,260,3.0,8.0,91,0.00,,,0.11,Wunderground v.1.15,2013-09-25 05:55:00,
2013-09-24 22:00:00,35.0,32.9,29.51,NE,54,3.0,4.0,92,0.00,,,0.11,Wunderground v.1.15,2013-09-25 06:00:00,
2013-09-24 22:05:00,34.9,32.8,29.51,NE,54,0.0,4.0,92,0.00,,,0.12,Wunderground v.1.15,2013-09-25 06:05:00,
2013-09-24 22:10:00,34.8,32.7,29.51,NNW,338,1.0,5.0,92,0.00,,,0.12,Wunderground v.1.15,2013-09-25 06:10:00,
2013-09-24 22:15:00,34.9,32.8,29.51,West,278,2.0,5.0,92,0.00,,,0.12,Wunderground v.1.15,2013-09-25 06:15:00,
2013-09-24 22:20:00,34.8,32.7,29.51,North,355,3.0,3.0,92,0.00,,,0.12,Wunderground v.1.15,2013-09-25 06:20:00,
2013-09-24 22:25:00,34.7,32.6,29.51,WNW,298,3.0,3.0,92,0.00,,,0.12,Wunderground v.1.15,2013-09-25 06:25:00,
2013-09-24 22:30:00,34.6,32.8,29.50,West,265,2.0,2.0,93,0.00,,,0.12,Wunderground v.1.15,2013-09-25 06:30:00,
2013-09-24 22:35:00,34.4,32.6,29.50,North,355,2.0,2.0,93,0.00,,,0.12,Wunderground v.1.15,2013-09-25 06:35:00,
2013-09-24 22:40:00,34.4,32.6,29.50,NNW,348,1.0,1.0,93,0.00,,,0.12,Wunderground v.1.15,2013-09-25 06:40:00,
2013-09-24 22:45:00,34.4,32.6,29.49,NW,313,0.0,1.0,93,0.00,,,0.12,Wunderground v.1.15,2013-09-25 06:45:00,
2013-09-24 22:50:00,34.3,32.5,29.49,North,360,1.0,4.0,93,0.00,,,0.12,Wunderground v.1.15,2013-09-25 06:50:00,
2013-09-24 22:55:00,34.3,32.5,29.49,NNW,344,1.0,4.0,93,0.00,,,0.12,Wunderground v.1.15,2013-09-25 06:55:00,
2013-09-24 23:00:00,34.4,32.6,29.49,North,351,1.0,3.0,93,0.00,,,0.12,Wunderground v.1.15,2013-09-25 07:00:00,
2013-09-24 23:05:00,34.3,32.5,29.49,NW,313,1.0,3.0,93,0.00,,,0.12,Wunderground v.1.15,2013-09-25 07:05:00,
2013-09-24 23:10:00,34.3,32.5,29.49,North,355,2.0,2.0,93,0.00,,,0.12,Wunderground v.1.15,2013-09-25 07:10:00,
2013-09-24 23:15:00,34.3,32.5,29.49,NW,319,2.0,2.0,93,0.00,,,0.12,Wunderground v.1.15,2013-09-25 07:15:00,
2013-09-24 23:20:00,34.1,32.3,29.48,NW,319,1.0,1.0,93,0.00,,,0.12,Wunderground v.1.15,2013-09-25 07:20:00,
2013-09-24 23:25:00,33.9,32.1,29.48,NW,304,1.0,4.0,93,0.00,,,0.12,Wunderground v.1.15,2013-09-25 07:25:00,
2013-09-24 23:30:00,33.8,32.3,29.48,NW,306,2.0,3.0,94,0.00,,,0.12,Wunderground v.1.15,2013-09-25 07:30:00,
2013-09-24 23:35:00,33.7,32.2,29.48,NW,323,2.0,3.0,94,0.00,,,0.12,Wunderground v.1.15,2013-09-25 07:35:00,
2013-09-24 23:40:00,33.7,32.2,29.48,NW,310,2.0,2.0,94,0.00,,,0.12,Wunderground v.1.15,2013-09-25 07:40:00,
2013-09-24 23:45:00,33.6,32.1,29.48,NW,310,1.0,2.0,94,0.00,,,0.12,Wunderground v.1.15,2013-09-25 07:45:00,
2013-09-24 23:50:00,33.6,32.1,29.48,NW,310,0.0,2.0,94,0.00,,,0.12,Wunderground v.1.15,2013-09-25 07:50:00,
2013-09-24 23:55:00,33.5,32.2,29.47,NW,310,0.0,2.0,95,0.00,,,0.13,Wunderground v.1.15,2013-09-25 07:55:00,